Time;durP1;ratioP1;P1;durP2;ratioP2;P2;SDS_P1;SDS_P2;PMS_P1;PMS_P2;Temp;Humidity;BMP_temperature;BMP_pressure;BME280_temperature;BME280_humidity;BME280_pressure;Samples;Min_cycle;Max_cycle;Signal;HPM_P1;HPM_P2
2023/06/29 00:02:26;;;;;;;4.50;3.90;;;;;;;;;;4377947;32;316920;-86
2023/06/29 00:04:55;;;;;;;8.15;4.40;;;;;;;;;;4390893;32;316768;-77
2023/06/29 00:07:24;;;;;;;5.70;4.25;;;;;;;;;;4382768;32;316996;-78
2023/06/29 00:09:53;;;;;;;6.53;5.03;;;;;;;;;;4388900;32;334341;-78
2023/06/29 00:12:20;;;;;;;6.45;4.12;;;;;;;;;;4379214;32;316917;-82
2023/06/29 00:14:48;;;;;;;4.30;3.90;;;;;;;;;;4389823;32;316698;-96
2023/06/29 00:17:16;;;;;;;6.45;4.70;;;;;;;;;;4378406;32;316696;-95
2023/06/29 00:19:47;;;;;;;4.43;4.03;;;;;;;;;;4388317;32;316737;-95
2023/06/29 00:22:16;;;;;;;8.10;4.82;;;;;;;;;;4376669;32;316993;-78
2023/06/29 00:24:43;;;;;;;4.03;3.60;;;;;;;;;;4387758;32;316957;-81
2023/06/29 00:27:12;;;;;;;5.20;4.12;;;;;;;;;;4375367;32;316704;-96
2023/06/29 00:29:42;;;;;;;5.00;3.80;;;;;;;;;;4388125;32;317018;-94
2023/06/29 00:32:10;;;;;;;6.15;4.00;;;;;;;;;;4379248;32;316816;-85
2023/06/29 00:34:37;;;;;;;3.80;3.50;;;;;;;;;;4393277;32;317097;-78
2023/06/29 00:37:05;;;;;;;5.03;3.37;;;;;;;;;;4382015;32;316804;-79
2023/06/29 00:39:35;;;;;;;7.35;3.83;;;;;;;;;;4390371;32;316736;-79
2023/06/29 00:42:03;;;;;;;5.22;3.70;;;;;;;;;;4390363;32;317111;-80
2023/06/29 00:44:31;;;;;;;4.60;3.50;;;;;;;;;;4375367;32;416429;-96
2023/06/29 00:46:59;;;;;;;4.45;3.50;;;;;;;;;;4387631;32;316854;-96
2023/06/29 00:49:27;;;;;;;4.18;3.05;;;;;;;;;;4368442;32;316802;-93
2023/06/29 00:51:55;;;;;;;3.80;3.10;;;;;;;;;;4372521;32;316876;-78
2023/06/29 00:54:23;;;;;;;4.87;3.70;;;;;;;;;;4359763;32;316872;-78
2023/06/29 00:56:53;;;;;;;3.72;3.05;;;;;;;;;;4371402;32;317150;-94
2023/06/29 00:59:21;;;;;;;4.28;3.15;;;;;;;;;;4359283;32;317010;-95
2023/06/29 01:01:48;;;;;;;7.12;3.30;;;;;;;;;;4368924;32;316831;-83
2023/06/29 01:04:17;;;;;;;3.22;2.67;;;;;;;;;;4361272;32;317059;-94
2023/06/29 01:06:51;;;;;;;4.32;3.15;;;;;;;;;;4370520;32;316871;-96
2023/06/29 01:09:19;;;;;;;9.02;3.25;;;;;;;;;;4360656;32;316705;-95
2023/06/29 01:11:48;;;;;;;7.93;2.97;;;;;;;;;;4371667;32;316971;-95
2023/06/29 01:14:18;;;;;;;3.62;2.78;;;;;;;;;;4359259;32;316803;-78
2023/06/29 01:16:47;;;;;;;5.18;3.15;;;;;;;;;;4371661;32;316801;-81
2023/06/29 01:19:20;;;;;;;5.25;3.10;;;;;;;;;;4359833;32;316826;-78
2023/06/29 01:21:55;;;;;;;3.72;2.85;;;;;;;;;;4372096;32;316807;-78
2023/06/29 01:24:26;;;;;;;3.60;3.30;;;;;;;;;;4359472;32;316979;-79
2023/06/29 01:26:55;;;;;;;3.12;2.75;;;;;;;;;;4371678;32;316714;-80
2023/06/29 01:29:24;;;;;;;6.75;3.00;;;;;;;;;;4361849;32;316670;-79
2023/06/29 01:32:00;;;;;;;4.65;2.83;;;;;;;;;;4371103;32;316726;-85
2023/06/29 01:34:29;;;;;;;9.68;2.60;;;;;;;;;;4359904;32;316799;-77
2023/06/29 01:37:02;;;;;;;4.70;3.35;;;;;;;;;;4370152;32;315700;-96
2023/06/29 01:39:36;;;;;;;5.20;3.08;;;;;;;;;;4343055;32;416421;-80
2023/06/29 01:42:06;;;;;;;3.67;2.90;;;;;;;;;;4356987;32;316717;-78
2023/06/29 01:44:33;;;;;;;4.20;3.00;;;;;;;;;;4342362;32;416729;-78
2023/06/29 01:47:01;;;;;;;3.75;3.00;;;;;;;;;;4356325;32;316813;-91
2023/06/29 01:49:29;;;;;;;5.10;3.45;;;;;;;;;;4348840;32;316828;-78
2023/06/29 01:51:56;;;;;;;4.12;3.05;;;;;;;;;;4384237;32;317113;-94
2023/06/29 01:54:24;;;;;;;4.25;3.55;;;;;;;;;;4375597;32;316949;-79
2023/06/29 01:56:51;;;;;;;7.85;3.45;;;;;;;;;;4383582;32;316877;-87
2023/06/29 01:59:20;;;;;;;4.03;3.33;;;;;;;;;;4376534;32;316741;-96
2023/06/29 02:01:47;;;;;;;3.55;3.22;;;;;;;;;;4386327;32;316830;-80
2023/06/29 02:04:15;;;;;;;3.45;3.15;;;;;;;;;;4375268;32;356967;-95
2023/06/29 02:06:42;;;;;;;3.87;2.92;;;;;;;;;;4384065;32;316670;-78
2023/06/29 02:09:10;;;;;;;9.93;3.42;;;;;;;;;;4375947;32;316668;-78
2023/06/29 02:11:37;;;;;;;4.60;3.53;;;;;;;;;;4383940;32;316687;-79
2023/06/29 02:14:05;;;;;;;5.90;2.70;;;;;;;;;;4376250;32;316779;-80
2023/06/29 02:16:33;;;;;;;3.67;3.22;;;;;;;;;;4385202;32;338061;-78
2023/06/29 02:19:01;;;;;;;5.57;3.60;;;;;;;;;;4385601;32;317114;-78
2023/06/29 02:21:28;;;;;;;3.90;3.20;;;;;;;;;;4375767;32;317027;-78
2023/06/29 02:23:56;;;;;;;3.33;2.95;;;;;;;;;;4385666;32;316691;-78
2023/06/29 02:26:26;;;;;;;7.20;3.45;;;;;;;;;;4374538;32;316759;-85
2023/06/29 02:28:54;;;;;;;6.07;2.85;;;;;;;;;;4385129;32;316969;-78
2023/06/29 02:31:21;;;;;;;3.47;3.00;;;;;;;;;;4374334;32;340791;-78
2023/06/29 02:33:50;;;;;;;8.00;3.12;;;;;;;;;;4386111;32;316585;-78
2023/06/29 02:36:20;;;;;;;4.72;3.62;;;;;;;;;;4375100;32;316742;-93
2023/06/29 02:38:48;;;;;;;3.58;3.03;;;;;;;;;;4385860;32;316600;-78
2023/06/29 02:41:15;;;;;;;3.58;2.67;;;;;;;;;;4373434;32;356907;-77
2023/06/29 02:43:43;;;;;;;3.72;3.30;;;;;;;;;;4386172;32;316584;-77
2023/06/29 02:46:10;;;;;;;4.72;3.00;;;;;;;;;;4372539;32;344866;-78
2023/06/29 02:48:38;;;;;;;6.57;3.40;;;;;;;;;;4385481;32;316746;-79
2023/06/29 02:51:07;;;;;;;8.00;4.53;;;;;;;;;;4373163;32;375184;-79
2023/06/29 02:53:34;;;;;;;4.12;3.25;;;;;;;;;;4385421;32;331570;-79
2023/06/29 02:56:01;;;;;;;4.18;3.20;;;;;;;;;;4384385;32;316748;-78
2023/06/29 02:58:29;;;;;;;3.85;2.90;;;;;;;;;;4373566;32;316494;-79
2023/06/29 03:00:56;;;;;;;5.68;3.30;;;;;;;;;;4386144;32;316925;-78
2023/06/29 03:03:23;;;;;;;9.88;4.10;;;;;;;;;;4373413;32;317013;-79
2023/06/29 03:05:51;;;;;;;4.30;3.03;;;;;;;;;;4384906;32;317063;-79
2023/06/29 03:08:19;;;;;;;4.22;3.65;;;;;;;;;;4375399;32;323238;-79
2023/06/29 03:10:47;;;;;;;8.07;3.53;;;;;;;;;;4386011;32;316853;-79
2023/06/29 03:13:14;;;;;;;5.80;3.33;;;;;;;;;;4374273;32;335953;-79
2023/06/29 03:15:42;;;;;;;7.37;3.40;;;;;;;;;;4385498;32;316665;-79
2023/06/29 03:18:09;;;;;;;6.60;3.10;;;;;;;;;;4375383;32;316680;-92
2023/06/29 03:20:36;;;;;;;4.35;3.30;;;;;;;;;;4385605;32;316666;-90
2023/06/29 03:23:04;;;;;;;4.10;3.08;;;;;;;;;;4388591;32;316951;-92
2023/06/29 03:25:33;;;;;;;4.47;3.05;;;;;;;;;;4374326;32;416200;-91
2023/06/29 03:28:00;;;;;;;5.20;3.03;;;;;;;;;;4387630;32;316527;-93
2023/06/29 03:30:27;;;;;;;7.00;3.65;;;;;;;;;;4374320;32;316804;-91
2023/06/29 03:32:58;;;;;;;4.07;3.15;;;;;;;;;;4386869;32;316742;-92
2023/06/29 03:35:25;;;;;;;5.55;3.17;;;;;;;;;;4376317;32;328476;-92
2023/06/29 03:37:52;;;;;;;4.07;3.05;;;;;;;;;;4386743;32;316943;-89
2023/06/29 03:40:20;;;;;;;3.90;3.47;;;;;;;;;;4377626;32;316767;-92
2023/06/29 03:42:49;;;;;;;6.05;3.40;;;;;;;;;;4387651;32;316648;-93
2023/06/29 03:45:17;;;;;;;5.80;3.65;;;;;;;;;;4376893;32;316558;-93
2023/06/29 03:47:44;;;;;;;7.40;3.90;;;;;;;;;;4387378;32;316651;-92
2023/06/29 03:50:11;;;;;;;4.22;3.05;;;;;;;;;;4374787;32;317032;-92
2023/06/29 03:52:39;;;;;;;4.35;3.37;;;;;;;;;;4387309;32;316971;-92
2023/06/29 03:55:08;;;;;;;4.82;3.62;;;;;;;;;;4376358;32;316585;-87
2023/06/29 03:57:36;;;;;;;7.47;3.50;;;;;;;;;;4386753;32;316787;-91
2023/06/29 04:00:05;;;;;;;5.80;2.95;;;;;;;;;;4387356;32;316836;-91
2023/06/29 04:02:33;;;;;;;4.03;3.53;;;;;;;;;;4374623;32;416747;-88
2023/06/29 04:05:00;;;;;;;8.48;3.75;;;;;;;;;;4386446;32;316793;-91
2023/06/29 04:07:28;;;;;;;8.10;3.83;;;;;;;;;;4376911;32;316551;-91
2023/06/29 04:09:55;;;;;;;3.80;3.40;;;;;;;;;;4387467;32;316543;-93
2023/06/29 04:12:22;;;;;;;6.03;3.92;;;;;;;;;;4374961;32;316722;-89
2023/06/29 04:14:50;;;;;;;4.50;3.47;;;;;;;;;;4387620;32;316631;-90
2023/06/29 04:17:18;;;;;;;4.82;3.28;;;;;;;;;;4377271;32;317283;-94
2023/06/29 04:19:46;;;;;;;5.25;3.65;;;;;;;;;;4387530;32;315487;-79
2023/06/29 04:22:13;;;;;;;4.65;3.08;;;;;;;;;;4375113;32;316725;-80
2023/06/29 04:24:41;;;;;;;5.05;3.50;;;;;;;;;;4387437;32;316595;-79
2023/06/29 04:27:09;;;;;;;7.95;3.72;;;;;;;;;;4375289;32;316687;-79
2023/06/29 04:29:36;;;;;;;6.72;3.90;;;;;;;;;;4387474;32;316607;-80
2023/06/29 04:32:03;;;;;;;6.90;3.80;;;;;;;;;;4384105;32;316817;-78
2023/06/29 04:34:33;;;;;;;5.07;3.83;;;;;;;;;;4374458;32;386390;-80
2023/06/29 04:37:02;;;;;;;5.10;3.65;;;;;;;;;;4386959;32;317282;-79
2023/06/29 04:39:29;;;;;;;5.12;3.72;;;;;;;;;;4376443;32;316780;-79
2023/06/29 04:42:01;;;;;;;4.87;3.62;;;;;;;;;;4385180;32;316812;-79
2023/06/29 04:44:31;;;;;;;3.62;3.33;;;;;;;;;;4376052;32;350038;-79
2023/06/29 04:47:01;;;;;;;3.65;2.97;;;;;;;;;;4387121;32;316818;-79
2023/06/29 04:49:31;;;;;;;5.80;3.65;;;;;;;;;;4375634;32;316737;-79
2023/06/29 04:52:00;;;;;;;7.53;2.95;;;;;;;;;;4384731;32;316717;-79
2023/06/29 04:54:28;;;;;;;5.87;3.20;;;;;;;;;;4371442;32;317695;-79
2023/06/29 04:56:56;;;;;;;3.90;3.28;;;;;;;;;;4383436;32;316921;-84
2023/06/29 04:59:26;;;;;;;4.15;3.30;;;;;;;;;;4360603;32;333985;-79
2023/06/29 05:01:53;;;;;;;4.10;3.25;;;;;;;;;;4371708;32;316526;-82
2023/06/29 05:04:21;;;;;;;3.58;3.17;;;;;;;;;;4360750;32;316783;-80
2023/06/29 05:06:48;;;;;;;9.93;3.28;;;;;;;;;;4371759;32;316726;-79
2023/06/29 05:09:17;;;;;;;6.72;2.80;;;;;;;;;;4361004;32;316815;-80
2023/06/29 05:11:44;;;;;;;6.45;2.60;;;;;;;;;;4369429;32;316773;-79
2023/06/29 05:14:12;;;;;;;8.50;3.55;;;;;;;;;;4360726;32;316880;-90
2023/06/29 05:16:39;;;;;;;6.07;3.75;;;;;;;;;;4369555;32;334336;-91
2023/06/29 05:19:07;;;;;;;14.02;4.15;;;;;;;;;;4361344;32;316745;-91
2023/06/29 05:21:34;;;;;;;4.62;3.17;;;;;;;;;;4370320;32;334190;-91
2023/06/29 05:24:02;;;;;;;14.48;5.40;;;;;;;;;;4344596;32;317010;-91
2023/06/29 05:26:31;;;;;;;8.80;4.62;;;;;;;;;;4360900;32;317854;-88
2023/06/29 05:28:59;;;;;;;5.05;3.55;;;;;;;;;;4370798;32;316771;-91
2023/06/29 05:31:26;;;;;;;9.38;4.55;;;;;;;;;;4369139;32;316429;-91
2023/06/29 05:33:53;;;;;;;4.65;4.00;;;;;;;;;;4362733;32;417292;-90
2023/06/29 05:36:21;;;;;;;8.65;4.72;;;;;;;;;;4371752;32;316471;-91
2023/06/29 05:38:48;;;;;;;4.85;3.60;;;;;;;;;;4365952;32;316484;-91
2023/06/29 05:41:16;;;;;;;7.30;3.37;;;;;;;;;;4375172;32;316597;-91
2023/06/29 05:43:45;;;;;;;5.68;3.45;;;;;;;;;;4356837;32;348534;-90
2023/06/29 05:46:12;;;;;;;5.53;3.60;;;;;;;;;;4376791;32;316551;-92
2023/06/29 05:48:40;;;;;;;16.37;8.50;;;;;;;;;;4362317;32;316526;-93
2023/06/29 05:51:07;;;;;;;30.17;12.27;;;;;;;;;;4386756;32;317400;-89
2023/06/29 05:53:35;;;;;;;10.75;6.10;;;;;;;;;;4375686;32;318783;-89
2023/06/29 05:56:02;;;;;;;7.65;4.12;;;;;;;;;;4386234;32;317554;-90
2023/06/29 05:58:29;;;;;;;5.18;4.03;;;;;;;;;;4374833;32;316680;-89
2023/06/29 06:00:58;;;;;;;6.75;3.67;;;;;;;;;;4386134;32;316340;-90
2023/06/29 06:03:26;;;;;;;4.78;3.90;;;;;;;;;;4384211;32;316818;-90
2023/06/29 06:05:53;;;;;;;9.35;4.25;;;;;;;;;;4374598;32;325849;-89
2023/06/29 06:08:20;;;;;;;8.50;4.87;;;;;;;;;;4384310;32;316846;-93
2023/06/29 06:10:48;;;;;;;4.78;4.00;;;;;;;;;;4375538;32;317004;-92
2023/06/29 06:13:15;;;;;;;11.07;3.85;;;;;;;;;;4384778;32;316644;-86
2023/06/29 06:15:43;;;;;;;5.05;3.80;;;;;;;;;;4375487;32;318018;-85
2023/06/29 06:18:12;;;;;;;5.47;4.80;;;;;;;;;;4384596;32;316726;-87
2023/06/29 06:20:39;;;;;;;6.97;3.80;;;;;;;;;;4372602;32;340833;-86
2023/06/29 06:23:07;;;;;;;7.53;4.28;;;;;;;;;;4385632;32;316625;-88
2023/06/29 06:25:34;;;;;;;4.93;4.43;;;;;;;;;;4372285;32;345975;-88
2023/06/29 06:28:02;;;;;;;5.00;4.12;;;;;;;;;;4385010;32;316933;-86
2023/06/29 06:30:29;;;;;;;4.72;4.00;;;;;;;;;;4373612;32;375983;-86
2023/06/29 06:32:57;;;;;;;7.32;3.58;;;;;;;;;;4384453;32;316683;-86
2023/06/29 06:35:26;;;;;;;8.27;4.00;;;;;;;;;;4386794;32;316951;-88
2023/06/29 06:37:53;;;;;;;5.65;4.03;;;;;;;;;;4375534;32;316891;-86
2023/06/29 06:40:20;;;;;;;6.07;3.67;;;;;;;;;;4383996;32;316847;-87
2023/06/29 06:42:48;;;;;;;4.12;3.20;;;;;;;;;;4371794;32;316855;-87
2023/06/29 06:45:16;;;;;;;4.35;3.95;;;;;;;;;;4384414;32;317078;-86
2023/06/29 06:47:44;;;;;;;4.43;4.03;;;;;;;;;;4376228;32;316678;-87
2023/06/29 06:50:11;;;;;;;4.10;3.70;;;;;;;;;;4384695;32;316795;-87
2023/06/29 06:52:40;;;;;;;7.72;4.15;;;;;;;;;;4375314;32;316597;-86
2023/06/29 06:55:09;;;;;;;5.15;3.20;;;;;;;;;;4386178;32;316666;-87
2023/06/29 06:57:36;;;;;;;5.28;3.62;;;;;;;;;;4377193;32;316633;-87
2023/06/29 07:00:05;;;;;;;4.87;3.97;;;;;;;;;;4385452;32;316471;-87
2023/06/29 07:02:33;;;;;;;8.20;3.42;;;;;;;;;;4374279;32;316771;-87
2023/06/29 07:05:00;;;;;;;4.97;3.72;;;;;;;;;;4387191;32;316809;-87
2023/06/29 07:07:27;;;;;;;6.47;3.17;;;;;;;;;;4386383;32;316690;-83
2023/06/29 07:09:56;;;;;;;5.55;3.50;;;;;;;;;;4374571;32;416278;-84
2023/06/29 07:12:24;;;;;;;3.83;3.40;;;;;;;;;;4387858;32;316809;-84
2023/06/29 07:14:52;;;;;;;3.50;3.12;;;;;;;;;;4377316;32;317015;-84
2023/06/29 07:17:19;;;;;;;5.93;3.37;;;;;;;;;;4387614;32;316776;-84
2023/06/29 07:19:47;;;;;;;3.30;2.92;;;;;;;;;;4377806;32;316752;-84
2023/06/29 07:22:14;;;;;;;3.78;2.92;;;;;;;;;;4387119;32;316710;-84
2023/06/29 07:24:41;;;;;;;4.77;3.00;;;;;;;;;;4375910;32;316841;-84
2023/06/29 07:27:10;;;;;;;4.93;3.08;;;;;;;;;;4385650;32;316687;-84
2023/06/29 07:29:37;;;;;;;4.12;2.95;;;;;;;;;;4376953;32;316803;-84
2023/06/29 07:32:06;;;;;;;5.32;2.80;;;;;;;;;;4387892;32;316693;-84
2023/06/29 07:34:33;;;;;;;7.03;3.35;;;;;;;;;;4376720;32;316706;-84
2023/06/29 07:37:01;;;;;;;5.00;2.90;;;;;;;;;;4385862;32;316738;-84
2023/06/29 07:39:29;;;;;;;4.40;3.65;;;;;;;;;;4384895;32;317426;-84
2023/06/29 07:41:57;;;;;;;6.95;2.90;;;;;;;;;;4386246;32;317008;-84
2023/06/29 07:44:26;;;;;;;3.75;3.10;;;;;;;;;;4387584;32;317089;-84
2023/06/29 07:46:53;;;;;;;5.18;3.53;;;;;;;;;;4391808;32;317065;-85
2023/06/29 07:49:21;;;;;;;4.62;3.00;;;;;;;;;;4400821;32;316981;-83
2023/06/29 07:51:49;;;;;;;4.43;2.70;;;;;;;;;;4390140;32;316791;-85
2023/06/29 07:54:18;;;;;;;2.75;2.47;;;;;;;;;;4401608;32;316642;-85
2023/06/29 07:56:45;;;;;;;6.57;2.53;;;;;;;;;;4391308;32;316903;-84
2023/06/29 07:59:13;;;;;;;3.95;2.87;;;;;;;;;;4402894;32;316676;-85
2023/06/29 08:01:42;;;;;;;6.20;2.85;;;;;;;;;;4391237;32;316991;-85
2023/06/29 08:04:09;;;;;;;4.03;2.80;;;;;;;;;;4400257;32;316781;-84
2023/06/29 08:06:41;;;;;;;11.52;3.10;;;;;;;;;;4392253;32;316663;-85
2023/06/29 08:09:09;;;;;;;4.70;3.17;;;;;;;;;;4402960;32;317780;-85
2023/06/29 08:11:37;;;;;;;5.30;3.00;;;;;;;;;;4389064;32;316764;-85
2023/06/29 08:14:04;;;;;;;3.83;2.50;;;;;;;;;;4402835;32;315361;-84
2023/06/29 08:16:32;;;;;;;2.80;2.50;;;;;;;;;;4391707;32;316524;-85
2023/06/29 08:19:01;;;;;;;2.97;2.15;;;;;;;;;;4401986;32;316488;-84
2023/06/29 08:21:29;;;;;;;3.05;2.28;;;;;;;;;;4393263;32;316834;-87
2023/06/29 08:23:56;;;;;;;3.78;3.12;;;;;;;;;;4401833;32;316811;-84
2023/06/29 08:26:24;;;;;;;4.80;2.58;;;;;;;;;;4402704;32;316715;-84
2023/06/29 08:28:52;;;;;;;4.07;3.12;;;;;;;;;;4391995;32;316789;-85
2023/06/29 08:31:20;;;;;;;7.10;2.42;;;;;;;;;;4400920;32;316918;-84
2023/06/29 08:33:49;;;;;;;7.32;2.50;;;;;;;;;;4390388;32;316776;-84
2023/06/29 08:36:18;;;;;;;3.87;2.25;;;;;;;;;;4402140;32;317021;-84
2023/06/29 08:38:48;;;;;;;5.37;2.53;;;;;;;;;;4391414;32;316666;-85
2023/06/29 08:41:17;;;;;;;6.07;2.60;;;;;;;;;;4400980;32;316918;-84
2023/06/29 08:43:44;;;;;;;3.00;2.30;;;;;;;;;;4391705;32;316649;-84
2023/06/29 08:46:11;;;;;;;5.43;2.53;;;;;;;;;;4400954;32;316621;-84
2023/06/29 08:48:42;;;;;;;6.43;2.50;;;;;;;;;;4391698;32;317120;-84
2023/06/29 08:51:11;;;;;;;3.35;2.53;;;;;;;;;;4402050;32;316489;-84
2023/06/29 08:53:43;;;;;;;8.65;2.85;;;;;;;;;;4390378;32;317520;-84
2023/06/29 08:56:12;;;;;;;2.55;2.10;;;;;;;;;;4402171;32;316754;-81
2023/06/29 08:58:40;;;;;;;3.28;2.37;;;;;;;;;;4391019;32;317066;-81
2023/06/29 09:01:08;;;;;;;3.35;2.40;;;;;;;;;;4400930;32;316853;-80
2023/06/29 09:03:37;;;;;;;2.40;2.08;;;;;;;;;;4391659;32;316905;-80
2023/06/29 09:06:04;;;;;;;5.10;2.00;;;;;;;;;;4401069;32;316722;-80
2023/06/29 09:08:34;;;;;;;4.07;2.25;;;;;;;;;;4389328;32;316831;-80
2023/06/29 09:11:03;;;;;;;2.90;2.00;;;;;;;;;;4401889;32;316560;-80
2023/06/29 09:13:33;;;;;;;2.50;2.05;;;;;;;;;;4390547;32;317097;-81
2023/06/29 09:16:01;;;;;;;4.35;2.40;;;;;;;;;;4401247;32;329293;-80
2023/06/29 09:18:29;;;;;;;2.40;2.03;;;;;;;;;;4395920;32;316958;-81
2023/06/29 09:20:57;;;;;;;3.25;1.92;;;;;;;;;;4400913;32;338137;-80
2023/06/29 09:23:27;;;;;;;3.42;1.80;;;;;;;;;;4401454;32;316697;-80
2023/06/29 09:25:56;;;;;;;4.82;2.08;;;;;;;;;;4386302;32;415944;-80
2023/06/29 09:28:25;;;;;;;3.37;2.97;;;;;;;;;;4400436;32;316706;-80
2023/06/29 09:30:53;;;;;;;3.17;2.30;;;;;;;;;;4390253;32;316418;-80
2023/06/29 09:33:21;;;;;;;3.70;2.03;;;;;;;;;;4401715;32;316946;-80
2023/06/29 09:35:51;;;;;;;5.18;2.75;;;;;;;;;;4389065;32;355356;-80
2023/06/29 09:38:19;;;;;;;6.12;2.30;;;;;;;;;;4399372;32;316821;-80
2023/06/29 09:40:48;;;;;;;3.10;2.30;;;;;;;;;;4391194;32;316620;-92
2023/06/29 09:43:17;;;;;;;2.62;2.05;;;;;;;;;;4400165;32;316744;-93
2023/06/29 09:45:46;;;;;;;4.12;1.85;;;;;;;;;;4390094;32;316581;-92
2023/06/29 09:48:14;;;;;;;4.22;1.98;;;;;;;;;;4400836;32;316724;-95
2023/06/29 09:50:49;;;;;;;4.65;2.00;;;;;;;;;;4390038;32;316761;-81
2023/06/29 09:53:16;;;;;;;5.93;2.40;;;;;;;;;;4400772;32;317042;-94
2023/06/29 09:55:44;;;;;;;1.95;1.80;;;;;;;;;;4388501;32;316789;-95
2023/06/29 09:58:14;;;;;;;6.07;1.70;;;;;;;;;;4399949;32;327906;-81
2023/06/29 10:00:41;;;;;;;3.45;2.17;;;;;;;;;;4391319;32;316956;-80
2023/06/29 10:03:10;;;;;;;3.30;1.87;;;;;;;;;;4400071;32;316990;-81
2023/06/29 10:05:39;;;;;;;3.15;1.77;;;;;;;;;;4390196;32;316729;-81
2023/06/29 10:08:09;;;;;;;5.85;2.33;;;;;;;;;;4399340;32;316940;-80
2023/06/29 10:10:38;;;;;;;2.47;1.80;;;;;;;;;;4388621;32;316757;-81
2023/06/29 10:13:07;;;;;;;6.55;1.60;;;;;;;;;;4400621;32;341119;-80
2023/06/29 10:15:37;;;;;;;2.47;1.90;;;;;;;;;;4388761;32;316813;-86
2023/06/29 10:18:11;;;;;;;4.25;1.67;;;;;;;;;;4400485;32;316772;-79
2023/06/29 10:20:43;;;;;;;9.38;2.83;;;;;;;;;;4391281;32;316937;-95
2023/06/29 10:23:12;;;;;;;2.12;1.60;;;;;;;;;;4399760;32;316922;-80
2023/06/29 10:25:45;;;;;;;2.37;1.80;;;;;;;;;;4389424;32;316724;-80
2023/06/29 10:28:14;;;;;;;1.62;1.30;;;;;;;;;;4399264;32;316970;-80
2023/06/29 10:30:45;;;;;;;2.42;1.65;;;;;;;;;;4392331;32;316702;-96
2023/06/29 10:33:21;;;;;;;2.83;1.95;;;;;;;;;;4403752;32;316655;-78
2023/06/29 10:35:52;;;;;;;5.93;1.92;;;;;;;;;;4392859;32;317132;-83
2023/06/29 10:38:20;;;;;;;2.03;1.48;;;;;;;;;;4402699;32;316568;-79
2023/06/29 10:40:48;;;;;;;3.62;1.45;;;;;;;;;;4393908;32;316949;-93
2023/06/29 10:43:17;;;;;;;3.28;1.70;;;;;;;;;;4401960;32;317065;-92
2023/06/29 10:45:45;;;;;;;2.35;1.55;;;;;;;;;;4392280;32;316776;-93
2023/06/29 10:48:18;;;;;;;1.67;1.50;;;;;;;;;;4403874;32;316516;-92
2023/06/29 10:50:50;;;;;;;2.67;1.62;;;;;;;;;;4394344;32;316550;-93
2023/06/29 10:53:18;;;;;;;2.37;1.73;;;;;;;;;;4404334;32;316969;-93
2023/06/29 10:55:50;;;;;;;2.70;1.75;;;;;;;;;;4393523;32;316719;-93
2023/06/29 10:58:23;;;;;;;2.85;1.85;;;;;;;;;;4403444;32;316874;-93
2023/06/29 11:00:52;;;;;;;1.80;1.42;;;;;;;;;;4394215;32;316456;-93
2023/06/29 11:03:22;;;;;;;3.03;1.40;;;;;;;;;;4389552;32;316701;-93
2023/06/29 11:05:51;;;;;;;4.65;1.62;;;;;;;;;;4392430;32;316521;-94
2023/06/29 11:08:21;;;;;;;3.90;1.60;;;;;;;;;;4402682;32;316897;-92
2023/06/29 11:10:49;;;;;;;3.42;1.75;;;;;;;;;;4394106;32;316727;-80
2023/06/29 11:13:20;;;;;;;12.40;1.70;;;;;;;;;;4404618;32;316807;-89
2023/06/29 11:15:53;;;;;;;3.25;1.90;;;;;;;;;;4393156;32;317862;-78
2023/06/29 11:18:22;;;;;;;2.15;1.58;;;;;;;;;;4402216;32;316782;-78
2023/06/29 11:20:50;;;;;;;3.17;1.75;;;;;;;;;;4391614;32;317177;-79
2023/06/29 11:23:18;;;;;;;2.00;1.50;;;;;;;;;;4403268;32;316887;-81
2023/06/29 11:25:45;;;;;;;2.35;1.70;;;;;;;;;;4392835;32;316713;-81
2023/06/29 11:28:16;;;;;;;1.90;1.60;;;;;;;;;;4401917;32;316757;-90
2023/06/29 11:30:44;;;;;;;5.82;2.85;;;;;;;;;;4393327;32;316299;-94
2023/06/29 11:33:12;;;;;;;3.90;1.70;;;;;;;;;;4402884;32;316955;-90
2023/06/29 11:35:43;;;;;;;2.73;1.70;;;;;;;;;;4390495;32;353537;-91
2023/06/29 11:38:11;;;;;;;2.83;2.10;;;;;;;;;;4402731;32;316797;-90
2023/06/29 11:40:38;;;;;;;2.03;1.58;;;;;;;;;;4391393;32;316743;-80
2023/06/29 11:43:06;;;;;;;2.00;1.60;;;;;;;;;;4401119;32;316949;-86
2023/06/29 11:45:34;;;;;;;2.67;1.45;;;;;;;;;;4393575;32;317013;-94
2023/06/29 11:48:01;;;;;;;2.50;1.60;;;;;;;;;;4401845;32;316761;-94
2023/06/29 11:50:30;;;;;;;2.92;1.40;;;;;;;;;;4401896;32;316847;-81
2023/06/29 11:52:59;;;;;;;1.92;1.37;;;;;;;;;;4390025;32;416411;-93
2023/06/29 11:55:27;;;;;;;7.90;1.40;;;;;;;;;;4401966;32;316938;-80
2023/06/29 11:57:56;;;;;;;1.98;1.37;;;;;;;;;;4387090;32;415046;-79
2023/06/29 12:00:33;;;;;;;1.80;1.55;;;;;;;;;;4403523;32;316788;-79
2023/06/29 12:03:08;;;;;;;2.47;1.50;;;;;;;;;;4388103;32;416260;-80
2023/06/29 12:05:41;;;;;;;4.25;1.45;;;;;;;;;;4392252;32;356571;-80
2023/06/29 12:08:11;;;;;;;5.82;1.30;;;;;;;;;;4405432;32;316968;-84
2023/06/29 12:10:40;;;;;;;1.52;1.30;;;;;;;;;;4390968;32;316825;-81
2023/06/29 12:13:10;;;;;;;1.52;1.42;;;;;;;;;;4402192;32;317010;-80
2023/06/29 12:15:38;;;;;;;3.97;1.42;;;;;;;;;;4390780;32;317070;-79
2023/06/29 12:18:12;;;;;;;10.02;1.40;;;;;;;;;;4401393;32;342255;-80
2023/06/29 12:20:43;;;;;;;8.50;1.95;;;;;;;;;;4393126;32;317964;-80
2023/06/29 12:23:13;;;;;;;2.05;1.45;;;;;;;;;;4402526;32;316894;-80
2023/06/29 12:25:45;;;;;;;1.65;1.20;;;;;;;;;;4393633;32;316950;-79
2023/06/29 12:28:13;;;;;;;1.35;1.23;;;;;;;;;;4402861;32;348207;-79
2023/06/29 12:30:41;;;;;;;2.55;1.20;;;;;;;;;;4391907;32;327433;-79
2023/06/29 12:33:09;;;;;;;1.92;1.40;;;;;;;;;;4405771;32;316827;-84
2023/06/29 12:35:36;;;;;;;1.80;1.33;;;;;;;;;;4393284;32;316943;-79
2023/06/29 12:38:05;;;;;;;2.40;1.55;;;;;;;;;;4401579;32;316854;-80
2023/06/29 12:40:34;;;;;;;8.73;1.30;;;;;;;;;;4394081;32;317626;-93
2023/06/29 12:43:01;;;;;;;1.15;1.05;;;;;;;;;;4404501;32;316910;-79
2023/06/29 12:45:29;;;;;;;3.45;1.60;;;;;;;;;;4402714;32;316726;-81
2023/06/29 12:47:57;;;;;;;3.33;1.40;;;;;;;;;;4404371;32;338384;-79
2023/06/29 12:50:24;;;;;;;2.53;1.27;;;;;;;;;;4401934;32;317252;-81
2023/06/29 12:52:52;;;;;;;2.17;1.67;;;;;;;;;;4390455;32;317234;-78
2023/06/29 12:55:19;;;;;;;2.75;1.60;;;;;;;;;;4401663;32;316835;-91
2023/06/29 12:57:48;;;;;;;2.25;1.45;;;;;;;;;;4391840;32;316978;-87
2023/06/29 13:00:18;;;;;;;2.25;1.42;;;;;;;;;;4402568;32;316840;-85
2023/06/29 13:02:46;;;;;;;2.40;1.42;;;;;;;;;;4391523;32;316748;-91
2023/06/29 13:05:14;;;;;;;1.83;1.50;;;;;;;;;;4402341;32;316935;-85
2023/06/29 13:07:42;;;;;;;2.10;1.40;;;;;;;;;;4391628;32;316872;-91
2023/06/29 13:10:12;;;;;;;2.03;1.62;;;;;;;;;;4402148;32;317060;-90
2023/06/29 13:12:41;;;;;;;4.75;1.92;;;;;;;;;;4390839;32;316739;-90
2023/06/29 13:15:11;;;;;;;1.50;1.40;;;;;;;;;;4401132;32;316951;-84
2023/06/29 13:17:38;;;;;;;1.55;1.30;;;;;;;;;;4391825;32;316865;-85
2023/06/29 13:20:07;;;;;;;3.00;1.40;;;;;;;;;;4401360;32;316909;-86
2023/06/29 13:22:34;;;;;;;2.20;1.30;;;;;;;;;;4390404;32;316964;-90
2023/06/29 13:25:02;;;;;;;3.22;1.80;;;;;;;;;;4402129;32;317233;-86
2023/06/29 13:27:29;;;;;;;1.60;1.20;;;;;;;;;;4394347;32;316905;-88
2023/06/29 13:29:57;;;;;;;3.35;1.77;;;;;;;;;;4401264;32;338538;-90
2023/06/29 13:32:25;;;;;;;2.33;1.40;;;;;;;;;;4400539;32;316835;-85
2023/06/29 13:34:53;;;;;;;6.32;1.50;;;;;;;;;;4389934;32;347254;-86
2023/06/29 13:37:21;;;;;;;9.30;1.70;;;;;;;;;;4402063;32;316973;-92
2023/06/29 13:39:49;;;;;;;2.70;2.08;;;;;;;;;;4389579;32;355113;-92
2023/06/29 13:42:16;;;;;;;2.83;1.40;;;;;;;;;;4400339;32;316624;-88
2023/06/29 13:44:44;;;;;;;1.40;1.20;;;;;;;;;;4389859;32;333027;-85
2023/06/29 13:47:17;;;;;;;2.20;1.60;;;;;;;;;;4401044;32;316821;-85
2023/06/29 13:49:46;;;;;;;4.40;1.80;;;;;;;;;;4388836;32;316840;-87
2023/06/29 13:52:13;;;;;;;3.03;1.70;;;;;;;;;;4400407;32;317110;-91
2023/06/29 13:54:42;;;;;;;2.05;1.20;;;;;;;;;;4391553;32;316636;-83
2023/06/29 13:57:09;;;;;;;2.03;1.17;;;;;;;;;;4399895;32;316827;-83
2023/06/29 13:59:37;;;;;;;2.72;1.42;;;;;;;;;;4390555;32;317140;-84
2023/06/29 14:02:04;;;;;;;4.75;1.25;;;;;;;;;;4400015;32;316793;-85
2023/06/29 14:04:32;;;;;;;2.50;1.60;;;;;;;;;;4390685;32;316560;-86
2023/06/29 14:07:01;;;;;;;5.22;1.33;;;;;;;;;;4399795;32;316931;-86
2023/06/29 14:09:29;;;;;;;2.35;1.52;;;;;;;;;;4399988;32;316802;-86
2023/06/29 14:11:57;;;;;;;4.25;1.70;;;;;;;;;;4386427;32;416161;-85
2023/06/29 14:14:24;;;;;;;2.58;1.65;;;;;;;;;;4401106;32;316550;-85
2023/06/29 14:16:52;;;;;;;3.62;1.80;;;;;;;;;;4390105;32;316628;-85
2023/06/29 14:19:19;;;;;;;5.72;1.80;;;;;;;;;;4399139;32;317014;-86
2023/06/29 14:21:47;;;;;;;7.20;1.62;;;;;;;;;;4390282;32;316949;-86
2023/06/29 14:24:16;;;;;;;3.28;1.52;;;;;;;;;;4400402;32;316870;-86
2023/06/29 14:26:43;;;;;;;1.95;1.67;;;;;;;;;;4389544;32;317054;-85
2023/06/29 14:29:11;;;;;;;2.45;1.62;;;;;;;;;;4401794;32;317497;-86
2023/06/29 14:31:38;;;;;;;1.58;1.40;;;;;;;;;;4388242;32;316604;-86
2023/06/29 14:34:06;;;;;;;1.73;1.35;;;;;;;;;;4400389;32;316796;-90
2023/06/29 14:36:33;;;;;;;1.50;1.37;;;;;;;;;;4390104;32;316971;-86